Segovia, Spain
Current Conditions -  °F | °C
As of 1:00 PM on Saturday 20 Dec 2014 (Local Time) from LEVS Reporting Station
Clear Clear  
Wind Chill: 57°   Ceiling: Unl
Heat Index: 57°   Visibility: 6mi
Dew Point: 32°   Wind: 0mph
Humidity: 38%   Direction: NA
Pressure: 30.5"   Gusts: NA
Location:  40.95°N, 4.12°W
Report Text: LEVS 201200Z 00000KT CAVOK 14/M00 Q1033
Loading
Personal Weather Stations






























Interactive Weather Map New forecast layout! Learn more

10-Day Weather Forecast

Advertisements
Track Severe Weather on mobile